Time;durP1;ratioP1;P1;durP2;ratioP2;P2;SDS_P1;SDS_P2;PMS_P1;PMS_P2;Temp;Humidity;BMP_temperature;BMP_pressure;BME280_temperature;BME280_humidity;BME280_pressure;Samples;Min_cycle;Max_cycle;Signal;HPM_P1;HPM_P2
2022/11/29 05:00:31;;;;;;;1999.90;999.90;;;7.10;99.90;;;;;;6021289;22;19913;-77
2022/11/29 05:03:00;;;;;;;1999.90;999.90;;;7.10;99.90;;;;;;5056775;28;20052;-77
2022/11/29 05:05:36;;;;;;;1999.90;999.90;;;7.10;99.90;;;;;;5055414;28;20084;-77
2022/11/29 05:08:39;;;;;;;1999.90;999.90;;;7.10;99.90;;;;;;5057077;28;20524;-77
2022/11/29 05:11:14;;;;;;;1999.90;999.90;;;7.10;99.90;;;;;;5056042;28;20116;-76
2022/11/29 05:14:18;;;;;;;1999.90;999.90;;;7.10;99.90;;;;;;5078756;22;20425;-79
2022/11/29 05:16:52;;;;;;;1999.90;999.90;;;7.10;99.90;;;;;;5056967;28;20093;-80
2022/11/29 05:19:44;;;;;;;1999.90;999.90;;;7.10;99.90;;;;;;5058688;28;20041;-79
2022/11/29 05:22:22;;;;;;;1999.90;999.90;;;7.10;99.90;;;;;;5061649;28;20029;-80
2022/11/29 05:25:14;;;;;;;1999.90;999.90;;;7.10;99.90;;;;;;5058909;28;20080;-80
2022/11/29 05:28:06;;;;;;;1999.90;999.90;;;7.10;99.90;;;;;;5062427;28;20041;-80
2022/11/29 05:31:18;;;;;;;1999.90;999.90;;;7.10;99.90;;;;;;5080947;28;20486;-80
2022/11/29 05:33:43;;;;;;;1999.90;999.90;;;7.10;99.90;;;;;;5082470;28;20100;-80
2022/11/29 05:36:30;;;;;;;1999.90;999.90;;;7.10;99.90;;;;;;5080549;28;20105;-80
2022/11/29 05:39:27;;;;;;;1999.90;999.90;;;7.10;99.90;;;;;;5078536;28;20119;-81
2022/11/29 05:42:05;;;;;;;1999.90;999.90;;;7.00;99.90;;;;;;5079274;28;20098;-79
2022/11/29 05:44:55;;;;;;;1999.90;999.90;;;7.10;99.90;;;;;;5081757;28;20029;-80
2022/11/29 05:47:28;;;;;;;1999.90;999.90;;;7.10;99.90;;;;;;5082177;28;20500;-79
2022/11/29 05:50:13;;;;;;;1999.90;999.90;;;7.10;99.90;;;;;;5082245;28;20460;-79
2022/11/29 05:52:57;;;;;;;1999.90;999.90;;;7.10;99.90;;;;;;5082913;28;20045;-80
2022/11/29 05:55:50;;;;;;;1999.90;999.90;;;7.00;99.90;;;;;;5082900;28;20092;-79
2022/11/29 05:58:45;;;;;;;1999.90;999.90;;;7.00;99.90;;;;;;5081184;28;20418;-79
2022/11/29 06:01:28;;;;;;;1999.90;999.90;;;7.00;99.90;;;;;;5081871;28;20025;-80
2022/11/29 06:04:19;;;;;;;1999.90;999.90;;;7.00;99.90;;;;;;5083493;28;20722;-82
2022/11/29 06:06:51;;;;;;;1999.90;999.90;;;7.00;99.90;;;;;;5083065;28;20052;-80
2022/11/29 06:09:29;;;;;;;1999.90;999.90;;;7.00;99.90;;;;;;5082166;28;20469;-80
2022/11/29 06:12:09;;;;;;;1999.90;999.90;;;6.90;99.90;;;;;;5082957;28;20112;-80
2022/11/29 06:14:51;;;;;;;1999.90;999.90;;;7.00;99.90;;;;;;5084219;28;20044;-80
2022/11/29 06:17:41;;;;;;;1999.90;999.90;;;7.00;99.90;;;;;;5086561;28;20029;-81
2022/11/29 06:20:37;;;;;;;1999.90;999.90;;;7.00;99.90;;;;;;5083763;28;20053;-80
2022/11/29 06:23:14;;;;;;;1999.90;999.90;;;6.90;99.90;;;;;;5097658;28;20602;-84
2022/11/29 06:26:06;;;;;;;1999.90;999.90;;;6.90;99.90;;;;;;5094815;28;20049;-80
2022/11/29 06:28:42;;;;;;;1999.90;999.90;;;6.80;99.90;;;;;;5081111;28;20033;-79
2022/11/29 06:31:19;;;;;;;1999.90;999.90;;;6.80;99.90;;;;;;5078651;28;20037;-80
2022/11/29 06:34:12;;;;;;;1999.90;999.90;;;6.80;99.90;;;;;;5080108;28;20033;-80
2022/11/29 06:36:46;;;;;;;1999.90;999.90;;;6.80;99.90;;;;;;5079091;28;20490;-80
2022/11/29 06:39:12;;;;;;;1999.90;999.90;;;6.80;99.90;;;;;;5081472;28;20040;-81
2022/11/29 06:41:38;;;;;;;1999.90;999.90;;;6.80;99.90;;;;;;5080071;28;20044;-80
2022/11/29 06:44:04;;;;;;;1999.90;999.90;;;6.80;99.90;;;;;;5080642;28;20553;-80
2022/11/29 06:46:45;;;;;;;1999.90;999.90;;;6.80;99.90;;;;;;5081486;28;20041;-82
2022/11/29 06:49:19;;;;;;;1999.90;999.90;;;6.90;99.90;;;;;;5080652;28;20116;-81
2022/11/29 06:52:23;;;;;;;1999.90;999.90;;;6.90;99.90;;;;;;5079617;28;20033;-80
2022/11/29 06:55:21;;;;;;;1999.90;999.90;;;6.90;99.90;;;;;;5080742;28;20031;-81
2022/11/29 06:58:05;;;;;;;1999.90;999.90;;;6.90;99.90;;;;;;5080297;28;20041;-81
2022/11/29 07:00:48;;;;;;;1999.90;999.90;;;6.90;99.90;;;;;;5078958;28;20029;-80
2022/11/29 07:03:41;;;;;;;1999.90;999.90;;;6.90;99.90;;;;;;5078836;28;20073;-79
2022/11/29 07:06:21;;;;;;;1999.90;999.90;;;6.90;99.90;;;;;;5082012;28;20129;-80
2022/11/29 07:08:51;;;;;;;1999.90;999.90;;;6.90;99.90;;;;;;5085163;28;20041;-81
2022/11/29 07:11:17;;;;;;;1999.90;999.90;;;6.90;99.90;;;;;;5083336;28;20029;-81
2022/11/29 07:13:43;;;;;;;1999.90;999.90;;;6.90;99.90;;;;;;5085403;28;20129;-80
2022/11/29 07:16:38;;;;;;;1999.90;999.90;;;6.90;99.90;;;;;;5086033;28;20040;-81
2022/11/29 07:19:37;;;;;;;1999.90;999.90;;;7.00;99.90;;;;;;5085887;28;20029;-81
2022/11/29 07:22:42;;;;;;;1999.90;999.90;;;7.00;99.90;;;;;;5084607;28;20033;-81
2022/11/29 07:25:27;;;;;;;1999.90;999.90;;;7.00;99.90;;;;;;5086814;28;20031;-83
2022/11/29 07:28:10;;;;;;;1999.90;999.90;;;7.00;99.90;;;;;;5086530;28;20033;-81
2022/11/29 07:30:57;;;;;;;1999.90;999.90;;;7.00;99.90;;;;;;5086557;28;20048;-81
2022/11/29 07:33:53;;;;;;;1999.90;999.90;;;7.00;99.90;;;;;;5091593;28;20080;-81
2022/11/29 07:37:04;;;;;;;1999.90;999.90;;;7.00;99.90;;;;;;5096141;28;20037;-82
2022/11/29 07:39:32;;;;;;;1999.90;999.90;;;7.00;99.90;;;;;;5080887;28;20037;-81
2022/11/29 07:42:38;;;;;;;1999.90;999.90;;;7.00;99.90;;;;;;5088891;28;20041;-81
2022/11/29 07:45:13;;;;;;;1999.90;999.90;;;7.00;99.90;;;;;;5075196;28;20059;-84
2022/11/29 07:47:39;;;;;;;1999.90;999.90;;;7.00;99.90;;;;;;5086574;28;20137;-83
2022/11/29 07:50:05;;;;;;;1999.90;999.90;;;7.00;99.90;;;;;;5085957;28;20049;-83
2022/11/29 07:52:31;;;;;;;1999.90;999.90;;;7.00;99.90;;;;;;5084362;28;20510;-83
2022/11/29 07:54:56;;;;;;;1999.90;999.90;;;7.00;99.90;;;;;;5085720;28;20063;-81
2022/11/29 07:57:22;;;;;;;1999.90;999.90;;;7.00;99.90;;;;;;5085660;28;20120;-82
2022/11/29 07:59:47;;;;;;;1999.90;999.90;;;7.00;99.90;;;;;;5087621;28;20029;-82
2022/11/29 08:02:13;;;;;;;1999.90;999.90;;;7.00;99.90;;;;;;5088529;28;20044;-83
2022/11/29 08:04:45;;;;;;;1999.90;999.90;;;7.00;99.90;;;;;;5085656;28;20048;-81
2022/11/29 08:07:11;;;;;;;1999.90;999.90;;;7.20;99.90;;;;;;5086358;28;20037;-82
2022/11/29 08:09:37;;;;;;;1999.90;999.90;;;7.10;99.90;;;;;;5087409;28;20029;-82
2022/11/29 08:12:03;;;;;;;1999.90;999.90;;;7.10;99.90;;;;;;5085806;28;20048;-81
2022/11/29 08:14:32;;;;;;;1999.90;999.90;;;7.10;99.90;;;;;;5085419;28;20938;-83
2022/11/29 08:16:57;;;;;;;1999.90;999.90;;;7.30;99.90;;;;;;5086513;28;20089;-81
2022/11/29 08:19:23;;;;;;;1999.90;999.90;;;7.20;99.90;;;;;;5086165;28;20056;-82
2022/11/29 08:21:50;;;;;;;1999.90;999.90;;;7.20;99.90;;;;;;5083171;28;20510;-83
2022/11/29 08:24:15;;;;;;;1999.90;999.90;;;7.20;99.90;;;;;;5087085;28;20025;-81
2022/11/29 08:26:41;;;;;;;1999.90;999.90;;;7.20;99.90;;;;;;5089820;28;20037;-82
2022/11/29 08:29:07;;;;;;;1999.90;999.90;;;7.30;99.90;;;;;;5088415;28;20044;-84
2022/11/29 08:31:33;;;;;;;1999.90;999.90;;;7.30;99.90;;;;;;5088263;28;20526;-82
2022/11/29 08:33:58;;;;;;;1999.90;999.90;;;7.30;99.90;;;;;;5087825;28;20053;-81
2022/11/29 08:36:24;;;;;;;1999.90;999.90;;;7.30;99.90;;;;;;5087824;28;20037;-82
2022/11/29 08:38:50;;;;;;;1999.90;999.90;;;7.40;99.90;;;;;;5088354;28;20529;-84
2022/11/29 08:41:16;;;;;;;1999.90;999.90;;;7.40;99.90;;;;;;5091231;28;20076;-82
2022/11/29 08:43:43;;;;;;;1999.90;999.90;;;7.40;99.90;;;;;;5087808;28;20029;-82
2022/11/29 08:46:09;;;;;;;1999.90;999.90;;;7.40;99.90;;;;;;5085642;28;20025;-82
2022/11/29 08:48:35;;;;;;;1999.90;999.90;;;7.50;99.90;;;;;;5083695;28;20418;-81
2022/11/29 08:51:02;;;;;;;1999.90;999.90;;;7.50;99.90;;;;;;5084296;28;20021;-79
2022/11/29 08:53:44;;;;;;;1999.90;999.90;;;7.60;99.90;;;;;;5083331;28;20028;-79
2022/11/29 08:56:17;;;;;;;1999.90;999.90;;;7.60;99.90;;;;;;5078052;28;20033;-79
2022/11/29 08:58:43;;;;;;;1999.90;999.90;;;7.60;99.90;;;;;;5077365;28;20465;-81
2022/11/29 09:01:13;;;;;;;1999.90;999.90;;;7.80;99.90;;;;;;5056509;28;20092;-79
2022/11/29 09:06:23;;;;;;;1999.90;999.90;;;7.80;99.90;;;;;;5060937;28;20029;-79
2022/11/29 09:08:48;;;;;;;1999.90;999.90;;;7.80;99.90;;;;;;5060329;28;20454;-80
2022/11/29 09:11:21;;;;;;;1999.90;999.90;;;7.80;99.90;;;;;;5060077;28;20041;-80
2022/11/29 09:13:49;;;;;;;1999.90;999.90;;;7.80;99.90;;;;;;5060468;28;20092;-80
2022/11/29 09:16:17;;;;;;;1999.90;999.90;;;7.70;99.90;;;;;;5061526;28;20850;-80
2022/11/29 09:18:43;;;;;;;1999.90;999.90;;;7.70;99.90;;;;;;5061126;28;20037;-80
2022/11/29 09:21:12;;;;;;;1999.90;999.90;;;7.70;99.90;;;;;;5061342;28;20530;-79
2022/11/29 09:23:39;;;;;;;1999.90;999.90;;;7.70;99.90;;;;;;5068690;28;20037;-80
2022/11/29 09:26:06;;;;;;;1999.90;999.90;;;7.80;99.90;;;;;;5071696;28;20046;-81
2022/11/29 09:28:32;;;;;;;1999.90;999.90;;;7.80;99.90;;;;;;5061541;28;20037;-79
2022/11/29 09:31:10;;;;;;;1999.90;999.90;;;7.80;99.90;;;;;;5058174;28;20037;-80
2022/11/29 09:33:36;;;;;;;1999.90;999.90;;;7.70;99.90;;;;;;5056795;28;20033;-80
2022/11/29 09:36:02;;;;;;;1999.90;999.90;;;7.70;99.90;;;;;;5062065;28;20026;-83
2022/11/29 09:38:28;;;;;;;1999.90;999.90;;;7.60;99.90;;;;;;5063136;28;20064;-84
2022/11/29 09:40:56;;;;;;;1999.90;999.90;;;7.70;99.90;;;;;;5057794;28;20165;-82
2022/11/29 09:43:39;;;;;;;1999.90;999.90;;;7.80;99.90;;;;;;5056869;28;20095;-80
2022/11/29 09:46:16;;;;;;;1999.90;999.90;;;7.80;99.90;;;;;;5055549;28;20490;-79
2022/11/29 09:49:01;;;;;;;1999.90;999.90;;;7.70;99.90;;;;;;5057436;28;20072;-81
2022/11/29 09:51:52;;;;;;;1999.90;999.90;;;7.70;99.90;;;;;;5056888;28;20487;-79
2022/11/29 09:54:26;;;;;;;1999.90;999.90;;;7.70;99.90;;;;;;5056402;28;20037;-79
2022/11/29 09:56:54;;;;;;;1999.90;999.90;;;7.70;99.90;;;;;;5056737;28;20029;-79
2022/11/29 09:59:41;;;;;;;1999.90;999.90;;;7.70;99.90;;;;;;5056488;28;20044;-79
2022/11/29 10:02:22;;;;;;;1999.90;999.90;;;7.70;99.90;;;;;;5054457;28;20038;-82
2022/11/29 10:05:07;;;;;;;1999.90;999.90;;;7.80;99.90;;;;;;5055328;28;20064;-79
2022/11/29 10:07:41;;;;;;;1999.90;999.90;;;7.90;99.90;;;;;;5054788;28;20037;-79
2022/11/29 10:10:28;;;;;;;1999.90;999.90;;;7.90;99.90;;;;;;5055860;28;20085;-79
2022/11/29 10:13:14;;;;;;;1999.90;999.90;;;7.90;99.90;;;;;;5054663;28;20137;-82
2022/11/29 10:15:44;;;;;;;1999.90;999.90;;;8.00;99.90;;;;;;5055080;28;20029;-81
2022/11/29 10:18:22;;;;;;;1999.90;999.90;;;7.90;99.90;;;;;;5054331;28;20033;-79
2022/11/29 10:20:52;;;;;;;1999.90;999.90;;;8.00;99.90;;;;;;5058090;28;20510;-82
2022/11/29 10:23:38;;;;;;;1999.90;999.90;;;8.10;99.90;;;;;;5056590;28;20124;-80
2022/11/29 10:26:07;;;;;;;1999.90;999.90;;;8.10;99.90;;;;;;5058221;28;20032;-80
2022/11/29 10:28:36;;;;;;;1999.90;999.90;;;8.00;99.90;;;;;;5060146;28;20061;-80
2022/11/29 10:31:26;;;;;;;1999.90;999.90;;;8.20;99.90;;;;;;5058956;28;20044;-80
2022/11/29 10:33:53;;;;;;;1999.90;999.90;;;8.20;99.90;;;;;;5057145;28;20165;-79
2022/11/29 10:36:46;;;;;;;1999.90;999.90;;;8.20;99.90;;;;;;5054606;28;20036;-79
2022/11/29 10:39:38;;;;;;;1999.90;999.90;;;8.10;99.90;;;;;;5054422;28;20113;-80
2022/11/29 10:42:47;;;;;;;1999.90;999.90;;;8.10;99.90;;;;;;5054109;28;20496;-82
2022/11/29 10:44:53;;;;;;;1999.90;999.90;;;8.20;99.90;;;;;;5055043;28;20033;-79
2022/11/29 10:47:19;;;;;;;1999.90;999.90;;;8.30;99.90;;;;;;5053983;28;20037;-79
2022/11/29 10:49:45;;;;;;;1999.90;999.90;;;8.20;99.90;;;;;;5055098;28;20034;-79
2022/11/29 10:52:18;;;;;;;1999.90;999.90;;;8.20;99.90;;;;;;5055184;28;20037;-82
2022/11/29 10:54:45;;;;;;;1999.90;999.90;;;8.10;99.90;;;;;;5054770;28;20543;-78
2022/11/29 10:57:20;;;;;;;1999.90;999.90;;;8.10;99.90;;;;;;5056062;28;20056;-80
2022/11/29 11:00:08;;;;;;;1999.90;999.90;;;8.10;99.90;;;;;;5055874;28;20029;-79
2022/11/29 11:02:35;;;;;;;1999.90;999.90;;;8.10;99.90;;;;;;5055326;28;20077;-79
2022/11/29 11:05:09;;;;;;;1999.90;999.90;;;8.00;99.90;;;;;;5054826;28;20034;-79
2022/11/29 11:07:35;;;;;;;1999.90;999.90;;;8.20;99.90;;;;;;5055270;28;20037;-79
2022/11/29 11:10:04;;;;;;;1999.90;999.90;;;8.20;99.90;;;;;;5054749;28;20037;-79
2022/11/29 11:12:32;;;;;;;1999.90;999.90;;;8.10;99.90;;;;;;5056325;28;20061;-78
2022/11/29 11:15:22;;;;;;;1999.90;999.90;;;7.90;99.90;;;;;;5088837;22;20455;-78
2022/11/29 11:18:00;;;;;;;1999.90;999.90;;;8.00;99.90;;;;;;5075863;28;20524;-77
2022/11/29 11:20:35;;;;;;;1999.90;999.90;;;8.00;99.90;;;;;;5075905;28;20029;-78
2022/11/29 11:23:04;;;;;;;1999.90;999.90;;;8.00;99.90;;;;;;5074164;28;20037;-77
2022/11/29 11:25:38;;;;;;;1999.90;999.90;;;8.10;99.90;;;;;;5093058;28;20033;-77
2022/11/29 11:28:16;;;;;;;1999.90;999.90;;;8.00;99.90;;;;;;5095836;28;20119;-77
2022/11/29 11:30:56;;;;;;;1999.90;999.90;;;8.00;99.90;;;;;;5094532;28;20071;-78
2022/11/29 11:33:30;;;;;;;1999.90;999.90;;;8.10;99.90;;;;;;5096053;28;20043;-78
2022/11/29 11:36:25;;;;;;;1999.90;999.90;;;8.20;99.90;;;;;;5094840;28;20113;-77
2022/11/29 11:39:12;;;;;;;1999.90;999.90;;;8.10;99.90;;;;;;5095226;28;20701;-78
2022/11/29 11:44:37;;;;;;;1999.90;999.90;;;8.10;99.90;;;;;;5095385;28;20032;-77
2022/11/29 11:47:23;;;;;;;1999.90;999.90;;;8.20;99.90;;;;;;5093316;28;20028;-77
2022/11/29 11:50:06;;;;;;;1999.90;999.90;;;8.30;99.90;;;;;;5094782;28;20179;-76
2022/11/29 11:52:35;;;;;;;1999.90;999.90;;;8.40;99.90;;;;;;5093835;28;20501;-77
2022/11/29 11:55:06;;;;;;;1999.90;999.90;;;8.40;99.90;;;;;;5094363;28;20493;-77
2022/11/29 11:57:32;;;;;;;1999.90;999.90;;;8.50;99.90;;;;;;5094585;28;20017;-77
2022/11/29 11:59:59;;;;;;;1999.90;999.90;;;8.50;99.90;;;;;;5099410;28;20025;-77
2022/11/29 12:02:34;;;;;;;1999.90;999.90;;;8.60;99.90;;;;;;5098766;28;20032;-77
2022/11/29 12:05:03;;;;;;;1999.90;999.90;;;8.50;99.90;;;;;;5093032;28;20040;-78
2022/11/29 12:07:40;;;;;;;1999.90;999.90;;;8.30;99.90;;;;;;5097236;28;20540;-79
2022/11/29 12:10:17;;;;;;;1999.90;999.90;;;8.30;99.90;;;;;;5088349;28;20045;-80
2022/11/29 12:12:45;;;;;;;1999.90;999.90;;;8.20;99.90;;;;;;5086206;28;20028;-78
2022/11/29 12:15:27;;;;;;;1999.90;999.90;;;8.30;99.90;;;;;;5087935;28;20025;-76
2022/11/29 12:18:03;;;;;;;1999.90;999.90;;;8.40;99.90;;;;;;5080095;28;20063;-78
2022/11/29 12:20:31;;;;;;;1999.90;999.90;;;8.40;99.90;;;;;;5079102;28;20037;-78
2022/11/29 12:23:12;;;;;;;1999.90;999.90;;;8.40;99.90;;;;;;5079926;28;20406;-80
2022/11/29 12:25:49;;;;;;;1999.90;999.90;;;8.30;99.90;;;;;;5079623;28;20033;-79
2022/11/29 12:28:17;;;;;;;1999.90;999.90;;;8.20;99.90;;;;;;5078588;28;20033;-80
2022/11/29 12:30:55;;;;;;;1999.90;999.90;;;8.10;99.90;;;;;;5080092;28;20072;-79
2022/11/29 12:33:55;;;;;;;1999.90;999.90;;;8.20;99.90;;;;;;5080853;28;20091;-81
2022/11/29 12:36:20;;;;;;;1999.90;999.90;;;8.20;99.90;;;;;;5079525;28;20037;-81
2022/11/29 12:38:58;;;;;;;1999.90;999.90;;;8.10;99.90;;;;;;5078977;28;20033;-80
2022/11/29 12:41:42;;;;;;;1999.90;999.90;;;8.00;99.90;;;;;;5079921;28;20126;-80
2022/11/29 12:44:47;;;;;;;1999.90;999.90;;;8.00;99.90;;;;;;5089019;28;20036;-78
2022/11/29 12:47:24;;;;;;;1999.90;999.90;;;8.10;99.90;;;;;;5120377;28;20031;-78
2022/11/29 12:50:14;;;;;;;1999.90;999.90;;;8.20;99.90;;;;;;5119650;28;20039;-78
2022/11/29 12:53:06;;;;;;;1999.90;999.90;;;8.20;99.90;;;;;;5118960;28;20042;-79
2022/11/29 12:56:09;;;;;;;1999.90;999.90;;;8.20;99.90;;;;;;5121147;28;20031;-79
2022/11/29 12:58:41;;;;;;;1999.90;999.90;;;8.30;99.90;;;;;;5119035;28;20040;-79
2022/11/29 13:01:22;;;;;;;1999.90;999.90;;;8.20;99.90;;;;;;5105282;28;20039;-80
2022/11/29 13:04:15;;;;;;;1999.90;999.90;;;8.20;99.90;;;;;;5090036;28;20055;-79
2022/11/29 13:06:48;;;;;;;1999.90;999.90;;;8.20;99.90;;;;;;5092600;28;20551;-78
2022/11/29 13:09:14;;;;;;;1999.90;999.90;;;8.10;99.90;;;;;;5088029;28;20063;-79
2022/11/29 13:12:02;;;;;;;1999.90;999.90;;;8.00;99.90;;;;;;5087191;28;20043;-78
2022/11/29 13:14:33;;;;;;;1999.90;999.90;;;8.00;99.90;;;;;;5088132;28;20041;-78
2022/11/29 13:17:01;;;;;;;1999.90;999.90;;;7.90;99.90;;;;;;5094625;28;20037;-80
2022/11/29 13:19:52;;;;;;;1999.90;999.90;;;7.90;99.90;;;;;;5098534;28;20497;-80
2022/11/29 13:22:25;;;;;;;1999.90;999.90;;;7.80;99.90;;;;;;5090794;28;20041;-80
2022/11/29 13:25:00;;;;;;;1999.90;999.90;;;7.80;99.90;;;;;;5098850;28;20111;-78
2022/11/29 13:27:30;;;;;;;1999.90;999.90;;;7.90;99.90;;;;;;5098591;28;20032;-79
2022/11/29 13:29:58;;;;;;;1999.90;999.90;;;7.80;99.90;;;;;;5097641;28;20029;-76
2022/11/29 13:32:26;;;;;;;1999.90;999.90;;;7.80;99.90;;;;;;5096073;28;20417;-77
2022/11/29 13:34:56;;;;;;;1999.90;999.90;;;7.90;99.90;;;;;;5096107;28;20032;-79
2022/11/29 13:37:46;;;;;;;1999.90;999.90;;;7.80;99.90;;;;;;5095478;28;20107;-77
2022/11/29 13:40:27;;;;;;;1999.90;999.90;;;7.80;99.90;;;;;;5096832;28;20059;-77
2022/11/29 13:43:21;;;;;;;1999.90;999.90;;;7.80;99.90;;;;;;5097527;28;20036;-78
2022/11/29 13:46:26;;;;;;;1999.90;999.90;;;7.80;99.90;;;;;;5095527;28;20478;-77
2022/11/29 13:48:53;;;;;;;1999.90;999.90;;;7.80;99.90;;;;;;5097209;28;20048;-78
2022/11/29 13:51:21;;;;;;;1999.90;999.90;;;7.80;99.90;;;;;;5096621;28;20532;-77
2022/11/29 13:53:47;;;;;;;1999.90;999.90;;;7.80;99.90;;;;;;5097464;28;20114;-77
2022/11/29 13:56:41;;;;;;;1999.90;999.90;;;7.90;99.90;;;;;;5096889;28;20103;-77
2022/11/29 13:59:12;;;;;;;1999.90;999.90;;;7.80;99.90;;;;;;5096953;28;20056;-77
2022/11/29 14:01:47;;;;;;;1999.90;999.90;;;7.80;99.90;;;;;;5096758;28;20549;-77
2022/11/29 14:04:27;;;;;;;1999.90;999.90;;;7.80;99.90;;;;;;5095101;28;20032;-77
2022/11/29 14:07:12;;;;;;;1999.90;999.90;;;7.90;99.90;;;;;;5097073;28;20028;-78
2022/11/29 14:09:58;;;;;;;1999.90;999.90;;;7.90;99.90;;;;;;5097054;28;20086;-76
2022/11/29 14:12:37;;;;;;;1999.90;999.90;;;7.90;99.90;;;;;;5096587;28;20436;-77
2022/11/29 14:15:27;;;;;;;1999.90;999.90;;;7.80;99.90;;;;;;5096709;28;20586;-77
2022/11/29 14:18:07;;;;;;;1999.90;999.90;;;7.80;99.90;;;;;;5097345;28;20056;-77
2022/11/29 14:20:39;;;;;;;1999.90;999.90;;;7.80;99.90;;;;;;5097528;28;20845;-78
2022/11/29 14:23:05;;;;;;;1999.90;999.90;;;7.90;99.90;;;;;;5096659;28;20032;-78
2022/11/29 14:25:34;;;;;;;1999.90;999.90;;;7.80;99.90;;;;;;5097355;28;20415;-78
2022/11/29 14:28:02;;;;;;;1999.90;999.90;;;7.80;99.90;;;;;;5097765;28;20033;-78
2022/11/29 14:30:39;;;;;;;1999.90;999.90;;;7.80;99.90;;;;;;5096719;28;20036;-78
2022/11/29 14:33:36;;;;;;;1999.90;999.90;;;7.70;99.90;;;;;;5096688;28;20400;-78
2022/11/29 14:36:13;;;;;;;1999.90;999.90;;;7.80;99.90;;;;;;5098409;28;20393;-78
2022/11/29 14:38:39;;;;;;;1999.90;999.90;;;7.80;99.90;;;;;;5096907;28;20028;-78
2022/11/29 14:41:41;;;;;;;1999.90;999.90;;;7.70;99.90;;;;;;5099680;28;20033;-79
2022/11/29 14:44:15;;;;;;;1999.90;999.90;;;7.70;99.90;;;;;;5099945;28;20047;-78
2022/11/29 14:46:41;;;;;;;1999.90;999.90;;;7.60;99.90;;;;;;5100775;28;20032;-78
2022/11/29 14:49:20;;;;;;;1999.90;999.90;;;7.60;99.90;;;;;;5101018;28;20033;-78
2022/11/29 14:52:11;;;;;;;1999.90;999.90;;;7.60;99.90;;;;;;5101407;28;20032;-79
2022/11/29 14:54:57;;;;;;;1999.90;999.90;;;7.60;99.90;;;;;;5101547;28;20084;-78
2022/11/29 14:57:48;;;;;;;1999.90;999.90;;;7.60;99.90;;;;;;5102828;28;20086;-78
2022/11/29 15:00:33;;;;;;;1999.90;999.90;;;7.60;99.90;;;;;;5101653;28;20075;-78
2022/11/29 15:03:20;;;;;;;1999.90;999.90;;;7.60;99.90;;;;;;5102020;28;20058;-78
2022/11/29 15:05:51;;;;;;;1999.90;999.90;;;7.50;99.90;;;;;;5099842;28;20032;-77
2022/11/29 15:08:25;;;;;;;1999.90;999.90;;;7.50;99.90;;;;;;5101859;28;20072;-78
2022/11/29 15:11:13;;;;;;;1999.90;999.90;;;7.50;99.90;;;;;;5096339;28;20035;-79
2022/11/29 15:14:04;;;;;;;1999.90;999.90;;;7.50;99.90;;;;;;5093956;28;20086;-78
2022/11/29 15:17:10;;;;;;;1999.90;999.90;;;7.50;99.90;;;;;;5095665;28;20024;-79
2022/11/29 15:19:54;;;;;;;1999.90;999.90;;;7.60;99.90;;;;;;5094459;28;20067;-79
2022/11/29 15:22:33;;;;;;;1999.90;999.90;;;7.40;99.90;;;;;;5095278;28;20144;-79
2022/11/29 15:25:03;;;;;;;1999.90;999.90;;;7.40;99.90;;;;;;5093936;28;20029;-78
2022/11/29 15:27:29;;;;;;;1999.90;999.90;;;7.40;99.90;;;;;;5094011;28;20033;-77
2022/11/29 15:29:55;;;;;;;1999.90;999.90;;;7.40;99.90;;;;;;5093867;28;20039;-78
2022/11/29 15:32:22;;;;;;;1999.90;999.90;;;7.40;99.90;;;;;;5095112;28;20442;-79
2022/11/29 15:34:50;;;;;;;1999.90;999.90;;;7.40;99.90;;;;;;5095087;28;20108;-78
2022/11/29 15:37:37;;;;;;;1999.90;999.90;;;7.30;99.90;;;;;;5095694;28;20032;-78
2022/11/29 15:40:09;;;;;;;1999.90;999.90;;;7.30;99.90;;;;;;5096184;28;20070;-78
2022/11/29 15:42:48;;;;;;;1999.90;999.90;;;7.30;99.90;;;;;;5094172;28;20087;-82
2022/11/29 15:45:37;;;;;;;1999.90;999.90;;;7.30;99.90;;;;;;5095360;28;20146;-77
2022/11/29 15:48:18;;;;;;;1999.90;999.90;;;7.20;99.90;;;;;;5095098;28;20037;-78
2022/11/29 15:51:02;;;;;;;1999.90;999.90;;;7.30;99.90;;;;;;5094619;28;20024;-75
2022/11/29 15:53:31;;;;;;;1999.90;999.90;;;7.30;99.90;;;;;;5094891;28;20176;-77
2022/11/29 15:55:59;;;;;;;1999.90;999.90;;;7.30;99.90;;;;;;5095137;28;20388;-78
2022/11/29 15:58:28;;;;;;;1999.90;999.90;;;7.20;99.90;;;;;;5095493;28;20028;-77
2022/11/29 16:00:54;;;;;;;1999.90;999.90;;;7.30;99.90;;;;;;5094808;28;20037;-80
2022/11/29 16:03:31;;;;;;;1999.90;999.90;;;7.20;99.90;;;;;;5095724;28;20494;-80
2022/11/29 16:06:06;;;;;;;1999.90;999.90;;;7.20;99.90;;;;;;5096266;28;20028;-79
2022/11/29 16:08:39;;;;;;;1999.90;999.90;;;7.20;99.90;;;;;;5093827;28;20039;-81
2022/11/29 16:11:06;;;;;;;1999.90;999.90;;;7.20;99.90;;;;;;5094503;28;20036;-80
2022/11/29 16:13:37;;;;;;;1999.90;999.90;;;7.20;99.90;;;;;;5095725;28;20033;-77
2022/11/29 16:16:06;;;;;;;1999.90;999.90;;;7.20;99.90;;;;;;5096989;28;20078;-79
2022/11/29 16:18:33;;;;;;;1999.90;999.90;;;7.20;99.90;;;;;;5096186;28;20036;-78
2022/11/29 16:21:00;;;;;;;1999.90;999.90;;;7.20;99.90;;;;;;5096452;28;20035;-79
2022/11/29 16:23:40;;;;;;;1999.90;999.90;;;7.20;99.90;;;;;;5081475;28;20092;-77
2022/11/29 16:26:17;;;;;;;1999.90;999.90;;;7.20;99.90;;;;;;5075319;28;20029;-79
2022/11/29 16:28:45;;;;;;;1999.90;999.90;;;7.20;99.90;;;;;;5076573;28;20029;-78
2022/11/29 16:31:22;;;;;;;1999.90;999.90;;;7.20;99.90;;;;;;5076215;28;20017;-78
2022/11/29 16:33:51;;;;;;;1999.90;999.90;;;7.10;99.90;;;;;;5075546;28;20106;-78
2022/11/29 16:36:23;;;;;;;1999.90;999.90;;;7.10;99.90;;;;;;5075408;28;20099;-79
2022/11/29 16:38:55;;;;;;;1999.90;999.90;;;7.10;99.90;;;;;;5074406;28;20032;-77
2022/11/29 16:41:32;;;;;;;1999.90;999.90;;;7.10;99.90;;;;;;5075974;28;20112;-79
2022/11/29 16:44:02;;;;;;;1999.90;999.90;;;7.00;99.90;;;;;;5076719;28;20065;-77
2022/11/29 16:46:30;;;;;;;1999.90;999.90;;;7.00;99.90;;;;;;5076812;28;20028;-77
2022/11/29 16:48:59;;;;;;;1999.90;999.90;;;7.00;99.90;;;;;;5078879;28;20032;-78
2022/11/29 16:51:42;;;;;;;1999.90;999.90;;;7.00;99.90;;;;;;5077427;28;20033;-77
2022/11/29 16:54:26;;;;;;;1999.90;999.90;;;7.00;99.90;;;;;;5077860;28;20073;-77
2022/11/29 16:56:54;;;;;;;1999.90;999.90;;;7.00;99.90;;;;;;5079058;28;20029;-76
2022/11/29 16:59:24;;;;;;;1999.90;999.90;;;7.00;99.90;;;;;;5078148;28;20036;-77
2022/11/29 17:01:50;;;;;;;1999.90;999.90;;;7.00;99.90;;;;;;5075695;28;20045;-77
2022/11/29 17:04:16;;;;;;;1999.90;999.90;;;7.00;99.90;;;;;;5076070;28;20029;-78
2022/11/29 17:06:42;;;;;;;1999.90;999.90;;;6.90;99.90;;;;;;5077524;28;20107;-81
2022/11/29 17:09:20;;;;;;;1999.90;999.90;;;6.90;99.90;;;;;;5075931;28;20031;-81
2022/11/29 17:11:45;;;;;;;1999.90;999.90;;;6.90;99.90;;;;;;5076162;28;20128;-83
2022/11/29 17:14:11;;;;;;;1999.90;999.90;;;6.80;99.90;;;;;;5078451;28;20482;-79
2022/11/29 17:16:42;;;;;;;1999.90;999.90;;;6.80;99.90;;;;;;5076569;28;20127;-81
2022/11/29 17:19:12;;;;;;;1999.90;999.90;;;6.70;99.90;;;;;;5077636;28;20029;-79
2022/11/29 17:21:37;;;;;;;1999.90;999.90;;;6.70;99.90;;;;;;5077918;28;20473;-80
2022/11/29 17:24:03;;;;;;;1999.90;999.90;;;6.70;99.90;;;;;;5076874;28;20068;-81
2022/11/29 17:26:29;;;;;;;1999.90;999.90;;;6.70;99.90;;;;;;5077829;28;20033;-79
2022/11/29 17:28:54;;;;;;;1999.90;999.90;;;6.70;99.90;;;;;;5077906;28;20068;-76
2022/11/29 17:31:22;;;;;;;1999.90;999.90;;;6.70;99.90;;;;;;5077034;28;20033;-79
2022/11/29 17:33:49;;;;;;;1999.90;999.90;;;6.70;99.90;;;;;;5076856;28;20127;-79
2022/11/29 17:36:17;;;;;;;1999.90;999.90;;;6.80;99.90;;;;;;5077032;28;20490;-77
2022/11/29 17:38:43;;;;;;;1999.90;999.90;;;6.80;99.90;;;;;;5078881;28;20041;-78
2022/11/29 17:41:10;;;;;;;1999.90;999.90;;;6.70;99.90;;;;;;5097206;28;20032;-80
2022/11/29 17:43:36;;;;;;;1999.90;999.90;;;6.70;99.90;;;;;;5080661;28;20045;-80
2022/11/29 17:46:12;;;;;;;1999.90;999.90;;;6.70;99.90;;;;;;5094332;28;20029;-77
2022/11/29 17:48:37;;;;;;;1999.90;999.90;;;6.80;99.90;;;;;;5095671;28;20036;-79
2022/11/29 17:51:04;;;;;;;1999.90;999.90;;;6.80;99.90;;;;;;5096813;28;20362;-79
2022/11/29 17:53:30;;;;;;;1999.90;999.90;;;6.70;99.90;;;;;;5095747;28;20029;-79
2022/11/29 17:56:08;;;;;;;1999.90;999.90;;;6.70;99.90;;;;;;5097243;28;20024;-78
2022/11/29 17:58:34;;;;;;;1999.90;999.90;;;6.70;99.90;;;;;;5095808;28;20158;-80